CheckWX is a tool to help pilots better visualize weather data.  It is not intended as a substitute for an official pre-flight weather briefing.

20:52:07 UTC

KDTS METAR
Destin Executive Airport
Destin, Florida, USA
Current

59 mins ago

KDTS 231953Z 19007KT 10SM CLR 26/09 A3011 RMK AO2 SLP195 T02560089
Observed
Apr-23 @ 19:53 UTC
Wind
  • 190° at 7 KTS
Visibility
10 SM
Flight Rules
VFR
Cloud Levels
  • Clear skies
Temperature
26°C / 79°F
Dewpoint
C / 48°F
Humidity
34%
Altimeter
30.11" Hg
Pressure
1019.62 hPa
Previous

2 hours ago

KDTS 231853Z 14008KT 10SM CLR 26/10 A3011 RMK AO2 SLP196 T02560100
Observed
Apr-23 @ 18:53 UTC
Wind
  • 140° at 8 KTS
Visibility
10 SM
Flight Rules
VFR
Cloud Levels
  • Clear skies
Temperature
26°C / 79°F
Dewpoint
10°C / 50°F
Humidity
37%
Altimeter
30.11" Hg
Pressure
1019.62 hPa
Previous

3 hours ago

KDTS 231753Z 13008KT 10SM CLR 26/07 A3013 RMK AO2 SLP202 T02610072 10267 20156 58012
Observed
Apr-23 @ 17:53 UTC
Wind
  • 130° at 8 KTS
Visibility
10 SM
Flight Rules
VFR
Cloud Levels
  • Clear skies
Temperature
26°C / 79°F
Dewpoint
C / 45°F
Humidity
30%
Altimeter
30.13" Hg
Pressure
1020.32 hPa